Saint Thomas, VI

10:49 AM AST on August 20, 2014 (GMT -0400)
King | Change Station
CLOSE
Current Station
Airport
Location: St. Thomas,
Elevation: 23 ft
Nearby Weather Stations

Elev 23 ft 18.34 °N, 64.97 °W | Updated 56 minutes ago

Mostly Cloudy
Mostly Cloudy
87 °F
Feels Like 96 °F
N
13
Wind Variable Wind from ESE
Gusts 20 mph

Today
High -- | Low -- °F
--% Chance of Precip.
Yesterday
High -- | Low -- °F
Precip. -- in
6:02 AM 6:43 PM
Waning Crescent, 21% visible
Pressure 30.02 in
Visibility 10.0 miles
Clouds Scattered Clouds 2600 ft
Mostly Cloudy 3200 ft
Heat Index 96 °F
Dew Point 75 °F
Humidity 67%
Rainfall 0.00 in
Snow Depth Not available.
UV 4 out of 12
Pollen Not available.
Air Quality Not available.
Flu Activity Not available.
METAR TIST 201353Z 11011G17KT 10SM SCT026 BKN032 31/24 A3002 RMK AO2 SLP166 T03060239

More Conditions Fewer Conditions

Pressure 30.02 in
Visibility 10.0 miles
Clouds Scattered Clouds 2600 ft
Mostly Cloudy 3200 ft
Heat Index 96 °F
Dew Point 75 °F
Humidity 67%
Rainfall 0.00 in
Snow Depth Not available.
UV 4 out of 12
Pollen Not available.
Air Quality Not available.
Flu Activity Not available.
METAR TIST 201353Z 11011G17KT 10SM SCT026 BKN032 31/24 A3002 RMK AO2 SLP166 T03060239

More Conditions Fewer Conditions

Nowcast | as of 10:36 am AST on August 20, 2014

Through early afternoon...isolated showers will push across the U.S. Virgin Islands...Culebra...and Vieques. These showers will produce brief periods of moderate to heavy rain with local amounts up to one quarter inch.

×

10-Day Weather Forecast

Almanac

Astronomy

Aug. 20, 2014 Rise Set
Actual Time 6:02 AM AST 6:43 PM AST
Civil Twilight 5:40 AM AST 7:05 PM AST
Nautical Twilight 5:14 AM AST 7:32 PM AST
Astronomical Twilight 4:47 AM AST 7:58 PM AST
Moon 1:54 AM AST 3:10 PM AST
Length of Visible Light 13h 25m
Length of Day
12h 40m
Tomorrow will be 0m 57s shorter.
Waning Crescent, 21% of the Moon is Illuminated
Today
Waning Crescent
Aug 25
New
Sep 2
First Quarter
Sep 8
Full
Sep 15
Last Quarter

Community

WunderPhotos

Upload Photos

1,745,658 photos uploaded!

Nearby

Snow Depth

Station Depth Elevation
No new snow has been reported.

Earthquake Activity

City Distance Mag. Time & Date
No recent earthquake activity has been reported nearby.
Minimum magnitude displayed is 2.5.

Coastal Water Temperatures

Place Temperature
Yabucoa Harbor, PR 84.0 °F
Esperanza, PR 84.0 °F
Charlotte Amalie, VI 84.9 °F

Nearby Weather Stations